createdAt,value
2023-05-05T00:00:21.473Z,9.12
2023-05-05T00:03:09.952Z,9.09
2023-05-05T00:05:38.354Z,9.04
2023-05-05T00:08:06.754Z,9.00
2023-05-05T00:10:35.201Z,8.97
2023-05-05T00:13:03.705Z,8.92
2023-05-05T00:15:32.283Z,8.88
2023-05-05T00:18:00.706Z,8.84
2023-05-05T00:20:29.148Z,8.81
2023-05-05T00:22:57.560Z,8.79
2023-05-05T00:25:25.912Z,8.76
2023-05-05T00:27:54.242Z,8.75
2023-05-05T00:30:22.804Z,8.74
2023-05-05T00:32:51.192Z,8.72
2023-05-05T00:35:19.558Z,8.71
2023-05-05T00:37:49.216Z,8.69
2023-05-05T00:40:18.715Z,8.67
2023-05-05T00:42:50.777Z,8.67
2023-05-05T00:45:20.551Z,8.67
2023-05-05T00:47:58.916Z,8.67
2023-05-05T00:50:30.598Z,8.67
2023-05-05T00:53:06.157Z,8.67
2023-05-05T00:55:35.579Z,8.68
2023-05-05T00:58:04.691Z,8.69
2023-05-05T01:00:34.511Z,8.70
2023-05-05T01:03:03.421Z,8.69
2023-05-05T01:05:53.549Z,8.68
2023-05-05T01:08:42.096Z,8.70
2023-05-05T01:11:21.560Z,8.70
2023-05-05T01:14:12.074Z,8.70
2023-05-05T01:16:59.190Z,8.69
2023-05-05T01:19:48.897Z,8.66
2023-05-05T01:22:22.998Z,8.66
2023-05-05T01:25:18.899Z,8.67
2023-05-05T01:28:19.177Z,8.65
2023-05-05T01:31:15.624Z,8.64
2023-05-05T01:33:59.054Z,8.63
2023-05-05T01:36:42.316Z,8.61
2023-05-05T01:39:16.607Z,8.60
2023-05-05T01:41:51.293Z,8.59
2023-05-05T01:44:20.373Z,8.60
2023-05-05T01:46:51.957Z,8.61
2023-05-05T01:49:20.723Z,8.61
2023-05-05T01:51:49.994Z,8.63
2023-05-05T01:54:19.240Z,8.64
2023-05-05T01:56:49.192Z,8.66
2023-05-05T01:59:20.385Z,8.67
2023-05-05T02:01:50.413Z,8.70
2023-05-05T02:04:22.814Z,8.71
2023-05-05T02:06:53.276Z,8.74
2023-05-05T02:09:25.050Z,8.76
2023-05-05T02:11:54.419Z,8.78
2023-05-05T02:14:26.612Z,8.78
2023-05-05T02:16:57.085Z,8.79
2023-05-05T02:19:34.291Z,8.79
2023-05-05T02:22:03.048Z,8.79
2023-05-05T02:24:31.808Z,8.77
2023-05-05T02:27:03.920Z,8.76
2023-05-05T02:29:36.906Z,8.75
2023-05-05T02:36:04.294Z,8.73
2023-05-05T02:38:33.437Z,8.68
2023-05-05T02:41:09.385Z,8.65
2023-05-05T02:43:40.950Z,8.61
2023-05-05T02:46:09.373Z,8.58
2023-05-05T02:50:57.242Z,8.56
2023-05-05T02:53:30.226Z,8.52
2023-05-05T02:56:22.781Z,8.51
2023-05-05T02:59:08.934Z,8.48
2023-05-05T03:01:56.820Z,8.46
2023-05-05T03:04:52.982Z,8.46
2023-05-05T03:07:31.052Z,8.44
2023-05-05T03:10:18.840Z,8.44
2023-05-05T03:13:02.196Z,8.43
2023-05-05T03:15:41.829Z,8.42
2023-05-05T03:18:11.579Z,8.41
2023-05-05T03:20:40.904Z,8.40
2023-05-05T03:23:10.190Z,8.38
2023-05-05T03:25:49.850Z,8.36
2023-05-05T03:28:18.183Z,8.34
2023-05-05T03:30:46.551Z,8.32
2023-05-05T03:33:16.360Z,8.29
2023-05-05T03:35:44.719Z,8.26
2023-05-05T03:38:13.075Z,8.23
2023-05-05T03:40:44.596Z,8.21
2023-05-05T03:43:13.236Z,8.20
2023-05-05T03:45:41.625Z,8.19
2023-05-05T03:48:10.070Z,8.18
2023-05-05T03:50:38.564Z,8.19
2023-05-05T03:53:06.929Z,8.19
2023-05-05T03:55:35.294Z,8.18
2023-05-05T03:58:08.679Z,8.19
2023-05-05T04:00:36.991Z,8.18
2023-05-05T04:03:05.986Z,8.19
2023-05-05T04:05:34.585Z,8.20
2023-05-05T04:08:03.474Z,8.21
2023-05-05T04:10:32.179Z,8.23
2023-05-05T04:13:00.904Z,8.23
2023-05-05T04:15:30.367Z,8.24
2023-05-05T04:17:58.722Z,8.24
2023-05-05T04:20:27.120Z,8.24
2023-05-05T04:22:55.497Z,8.24
2023-05-05T04:25:23.942Z,8.25
2023-05-05T04:27:52.271Z,8.26
2023-05-05T04:30:20.716Z,8.27
2023-05-05T04:32:49.113Z,8.28
2023-05-05T04:35:17.629Z,8.28
2023-05-05T04:37:46.130Z,8.28
2023-05-05T04:40:14.650Z,8.28
2023-05-05T04:42:43.021Z,8.30
2023-05-05T04:45:11.851Z,8.32
2023-05-05T04:47:40.804Z,8.37
2023-05-05T04:50:11.486Z,8.42
2023-05-05T04:52:40.083Z,8.50
2023-05-05T04:55:10.721Z,8.59
2023-05-05T04:57:39.184Z,8.72
2023-05-05T05:00:09.737Z,8.88
2023-05-05T05:02:38.560Z,9.05
2023-05-05T05:05:07.805Z,9.22
2023-05-05T05:07:36.223Z,9.41
2023-05-05T05:10:05.247Z,9.58
2023-05-05T05:12:33.838Z,9.76
2023-05-05T05:15:02.379Z,9.95
2023-05-05T05:17:30.784Z,10.12
2023-05-05T05:20:01.749Z,10.27
2023-05-05T05:22:31.289Z,10.42
2023-05-05T05:24:59.687Z,10.55
2023-05-05T05:27:28.466Z,10.67
2023-05-05T05:29:57.365Z,10.79
2023-05-05T05:32:25.830Z,10.93
2023-05-05T05:34:54.169Z,11.05
2023-05-05T05:37:22.571Z,11.18
2023-05-05T05:39:52.395Z,11.32
2023-05-05T05:42:22.420Z,11.45
2023-05-05T05:44:56.876Z,11.60
2023-05-05T05:47:31.111Z,11.77
2023-05-05T05:50:05.847Z,11.96
2023-05-05T05:52:36.226Z,12.13
2023-05-05T05:55:31.109Z,12.28
2023-05-05T05:58:06.128Z,12.47
2023-05-05T06:00:37.962Z,12.59
2023-05-05T06:03:30.777Z,12.71
2023-05-05T06:05:59.510Z,12.79
2023-05-05T06:08:27.959Z,12.89
2023-05-05T06:10:56.384Z,12.96
2023-05-05T06:13:24.822Z,13.04
2023-05-05T06:15:53.198Z,13.11
2023-05-05T06:18:21.714Z,13.20
2023-05-05T06:20:51.508Z,13.29
2023-05-05T06:23:20.018Z,13.40
2023-05-05T06:25:48.415Z,13.50
2023-05-05T06:28:16.837Z,13.57
2023-05-05T06:30:45.161Z,13.69
2023-05-05T06:33:13.437Z,13.81
2023-05-05T06:35:41.807Z,13.94
2023-05-05T06:38:10.132Z,14.06
2023-05-05T06:40:38.575Z,14.19
2023-05-05T06:43:07.920Z,14.29
2023-05-05T06:45:36.341Z,14.38
2023-05-05T06:48:04.907Z,14.47
2023-05-05T06:50:33.449Z,14.57
2023-05-05T06:53:01.830Z,14.65
2023-05-05T06:55:30.937Z,14.74
2023-05-05T06:57:59.351Z,14.83
2023-05-05T07:00:27.923Z,14.93
2023-05-05T07:02:56.325Z,15.03
2023-05-05T07:05:24.734Z,15.10
2023-05-05T07:07:55.144Z,15.15
2023-05-05T07:10:25.523Z,15.21
2023-05-05T07:12:55.072Z,15.29
2023-05-05T07:15:28.180Z,15.35
2023-05-05T07:17:57.775Z,15.41
2023-05-05T07:29:58.729Z,15.84
2023-05-05T07:32:27.607Z,15.90
2023-05-05T07:34:56.254Z,15.99
2023-05-05T07:37:24.752Z,16.07
2023-05-05T07:39:53.186Z,16.15
2023-05-05T07:42:21.550Z,16.25
2023-05-05T07:44:50.193Z,16.36
2023-05-05T07:47:18.632Z,16.45
2023-05-05T07:49:47.031Z,16.54
2023-05-05T07:52:15.311Z,16.63
2023-05-05T07:54:45.450Z,16.71
2023-05-05T08:05:17.937Z,17.09
2023-05-05T08:07:46.704Z,17.18
2023-05-05T08:10:15.197Z,17.29
2023-05-05T08:12:43.579Z,17.38
2023-05-05T08:15:12.141Z,17.47
2023-05-05T08:17:52.349Z,17.56
2023-05-05T08:20:21.296Z,17.64
2023-05-05T08:22:50.000Z,17.73
2023-05-05T08:25:18.427Z,17.86
2023-05-05T08:27:46.831Z,18.00
2023-05-05T08:30:17.206Z,18.12
2023-05-05T08:32:45.678Z,18.26
2023-05-05T08:35:14.195Z,18.41
2023-05-05T08:37:42.594Z,18.57
2023-05-05T08:40:14.479Z,18.72
2023-05-05T08:42:45.584Z,18.87
2023-05-05T08:45:13.984Z,19.02
2023-05-05T08:48:34.068Z,19.21
2023-05-05T08:51:05.621Z,19.36
2023-05-05T08:54:00.395Z,19.49
2023-05-05T08:56:38.815Z,19.69
2023-05-05T08:59:09.668Z,19.88
2023-05-05T09:01:38.307Z,20.04
2023-05-05T09:04:09.815Z,20.17
2023-05-05T09:06:38.782Z,20.34
2023-05-05T09:09:08.435Z,20.51
2023-05-05T09:11:38.635Z,20.70
2023-05-05T09:16:53.646Z,21.02
2023-05-05T09:19:22.099Z,21.20
2023-05-05T09:21:50.536Z,21.36
2023-05-05T09:24:18.950Z,21.60
2023-05-05T09:26:50.942Z,21.77
2023-05-05T09:29:21.072Z,21.97
2023-05-05T09:32:11.291Z,22.19
2023-05-05T09:34:40.032Z,22.41
2023-05-05T09:37:08.420Z,22.62
2023-05-05T09:39:37.064Z,22.77
2023-05-05T09:42:07.799Z,22.92
2023-05-05T09:44:43.448Z,23.13
2023-05-05T09:47:28.483Z,23.33
2023-05-05T09:50:00.959Z,23.45
2023-05-05T09:52:30.828Z,23.48
2023-05-05T09:55:00.442Z,23.57
2023-05-05T09:57:34.068Z,23.75
2023-05-05T10:00:04.550Z,23.93
2023-05-05T10:02:39.192Z,24.16
2023-05-05T10:05:15.611Z,24.38
2023-05-05T10:07:47.838Z,24.57
2023-05-05T10:10:18.449Z,24.83
2023-05-05T10:12:49.386Z,25.07
2023-05-05T10:15:18.735Z,25.37
2023-05-05T10:20:22.677Z,25.93
2023-05-05T10:22:53.561Z,26.21
2023-05-05T10:25:33.149Z,26.42
2023-05-05T10:28:06.714Z,26.60
2023-05-05T10:34:00.883Z,27.16
2023-05-05T10:36:30.216Z,27.35
2023-05-05T10:39:00.276Z,27.58
2023-05-05T10:41:31.031Z,27.85
2023-05-05T10:44:01.408Z,28.15
2023-05-05T10:46:31.874Z,28.49
2023-05-05T10:49:08.917Z,28.83
2023-05-05T10:51:55.580Z,29.12
2023-05-05T10:54:40.223Z,29.36
2023-05-05T10:57:10.916Z,29.58
2023-05-05T10:59:42.292Z,29.75
2023-05-05T11:02:21.417Z,29.96
2023-05-05T11:05:22.908Z,30.16
2023-05-05T11:07:52.476Z,30.40
2023-05-05T11:10:22.968Z,30.59
2023-05-05T11:13:02.550Z,30.71
2023-05-05T11:15:31.299Z,30.91
2023-05-05T11:18:07.553Z,31.24
2023-05-05T11:20:43.687Z,31.50
2023-05-05T11:23:13.349Z,31.70
2023-05-05T11:25:44.667Z,31.89
2023-05-05T11:28:16.957Z,32.12
2023-05-05T11:31:00.266Z,32.38
2023-05-05T11:33:33.540Z,32.70
2023-05-05T11:36:17.988Z,32.93
2023-05-05T11:39:05.955Z,33.07
2023-05-05T11:41:59.160Z,33.27
2023-05-05T11:44:34.687Z,33.47
2023-05-05T11:47:06.197Z,33.62
2023-05-05T11:49:38.192Z,33.71
2023-05-05T11:52:10.268Z,33.91
2023-05-05T11:54:41.726Z,34.18
2023-05-05T11:57:10.190Z,34.53
2023-05-05T11:59:57.965Z,34.85
2023-05-05T12:02:28.628Z,34.98
2023-05-05T12:05:00.094Z,35.03
2023-05-05T12:07:32.196Z,35.13
2023-05-05T12:10:01.565Z,35.29
2023-05-05T12:12:42.788Z,35.42
2023-05-05T12:15:11.513Z,35.52
2023-05-05T12:17:46.131Z,35.52
2023-05-05T12:20:15.225Z,35.63
2023-05-05T12:22:44.842Z,35.83
2023-05-05T12:25:14.054Z,35.86
2023-05-05T12:27:52.262Z,36.00
2023-05-05T12:30:22.537Z,36.25
2023-05-05T12:32:51.151Z,36.50
2023-05-05T12:48:23.818Z,36.19
2023-05-05T12:50:52.438Z,35.87
2023-05-05T12:53:25.681Z,35.83
2023-05-05T12:55:54.256Z,36.02
2023-05-05T12:58:22.771Z,36.07
2023-05-05T13:01:10.890Z,35.97
2023-05-05T13:03:39.432Z,35.95
2023-05-05T13:06:26.058Z,36.09
2023-05-05T13:08:54.375Z,36.28
2023-05-05T13:11:22.777Z,36.49
2023-05-05T13:13:51.438Z,36.66
2023-05-05T13:16:19.793Z,36.67
2023-05-05T13:18:50.222Z,36.58
2023-05-05T13:21:18.557Z,36.65
2023-05-05T13:23:46.942Z,36.92
2023-05-05T13:26:18.397Z,37.24
2023-05-05T13:28:46.990Z,37.49
2023-05-05T13:31:15.427Z,37.83
2023-05-05T13:33:44.316Z,38.07
2023-05-05T13:36:12.778Z,38.39
2023-05-05T13:38:41.186Z,38.72
2023-05-05T13:41:09.770Z,38.98
2023-05-05T13:43:38.204Z,39.34
2023-05-05T13:46:19.231Z,39.73
2023-05-05T13:48:48.749Z,40.00
2023-05-05T13:51:17.579Z,40.11
2023-05-05T13:53:46.717Z,40.11
2023-05-05T13:56:17.834Z,39.94
2023-05-05T13:58:47.727Z,39.99
2023-05-05T14:01:16.084Z,40.02
2023-05-05T14:03:44.506Z,40.19
2023-05-05T14:06:12.869Z,40.21
2023-05-05T14:08:41.603Z,40.02
2023-05-05T14:11:09.999Z,39.77
2023-05-05T14:13:38.575Z,39.70
2023-05-05T14:16:07.084Z,39.62
2023-05-05T14:18:37.122Z,39.44
2023-05-05T14:21:05.619Z,39.34
2023-05-05T14:23:34.106Z,39.17
2023-05-05T14:26:02.960Z,39.15
2023-05-05T14:28:31.791Z,39.35
2023-05-05T14:31:00.342Z,39.77
2023-05-05T14:33:28.702Z,40.07
2023-05-05T14:35:57.275Z,40.42
2023-05-05T14:38:25.702Z,41.05
2023-05-05T14:40:54.277Z,41.31
2023-05-05T14:43:22.620Z,41.47
2023-05-05T14:45:54.468Z,41.55
2023-05-05T14:48:22.876Z,41.55
2023-05-05T14:50:51.227Z,41.51
2023-05-05T14:53:19.594Z,41.61
2023-05-05T14:55:48.166Z,41.63
2023-05-05T14:58:18.815Z,41.56
2023-05-05T15:00:47.104Z,41.20
2023-05-05T15:03:16.006Z,40.79
2023-05-05T15:05:44.484Z,40.47
2023-05-05T15:08:14.482Z,40.06
2023-05-05T15:10:42.861Z,39.86
2023-05-05T15:13:11.321Z,40.10
2023-05-05T15:15:39.791Z,40.66
2023-05-05T15:18:08.523Z,41.03
2023-05-05T15:20:37.072Z,41.27
2023-05-05T15:23:05.671Z,41.38
2023-05-05T15:25:34.046Z,41.67
2023-05-05T15:28:02.459Z,42.03
2023-05-05T15:30:31.017Z,42.13
2023-05-05T15:32:59.539Z,42.39
2023-05-05T15:35:27.948Z,42.68
2023-05-05T15:37:56.333Z,42.25
2023-05-05T15:40:24.916Z,41.74
2023-05-05T15:42:53.546Z,41.09
2023-05-05T15:45:21.898Z,40.25
2023-05-05T15:47:50.837Z,39.49
2023-05-05T15:50:20.042Z,38.74
2023-05-05T15:52:49.976Z,37.97
2023-05-05T15:55:18.502Z,37.26
2023-05-05T15:57:46.864Z,36.90
2023-05-05T16:00:16.200Z,36.55
2023-05-05T16:02:45.155Z,36.26
2023-05-05T16:05:13.886Z,35.91
2023-05-05T16:07:42.451Z,35.25
2023-05-05T16:10:10.860Z,34.51
2023-05-05T16:12:39.417Z,33.71
2023-05-05T16:15:08.811Z,32.95
2023-05-05T16:17:37.544Z,32.25
2023-05-05T16:20:06.633Z,31.73
2023-05-05T16:22:35.015Z,31.26
2023-05-05T16:25:03.863Z,31.03
2023-05-05T16:27:32.264Z,31.04
2023-05-05T16:30:00.790Z,30.82
2023-05-05T16:32:29.354Z,30.51
2023-05-05T16:34:57.711Z,30.21
2023-05-05T16:37:26.087Z,30.08
2023-05-05T16:39:54.504Z,29.74
2023-05-05T16:42:23.310Z,29.40
2023-05-05T16:44:51.647Z,29.03
2023-05-05T16:47:20.041Z,28.73
2023-05-05T16:49:48.459Z,28.45
2023-05-05T16:52:16.877Z,28.17
2023-05-05T16:54:45.303Z,27.88
2023-05-05T16:57:13.791Z,27.60
2023-05-05T16:59:42.148Z,27.32
2023-05-05T17:02:10.663Z,26.99
2023-05-05T17:04:38.996Z,26.66
2023-05-05T17:07:07.594Z,26.38
2023-05-05T17:09:35.960Z,26.13
2023-05-05T17:12:04.809Z,25.80
2023-05-05T17:14:33.666Z,25.50
2023-05-05T17:17:02.111Z,25.18
2023-05-05T17:19:30.653Z,24.86
2023-05-05T17:21:59.027Z,24.56
2023-05-05T17:24:27.438Z,24.27
2023-05-05T17:26:55.876Z,23.97
2023-05-05T17:29:24.350Z,23.70
2023-05-05T17:31:54.099Z,23.40
2023-05-05T17:34:22.744Z,23.14
2023-05-05T17:36:51.096Z,22.86
2023-05-05T17:39:19.535Z,22.61
2023-05-05T17:41:47.858Z,22.38
2023-05-05T17:44:16.198Z,22.17
2023-05-05T17:46:44.573Z,21.97
2023-05-05T17:49:12.868Z,21.77
2023-05-05T17:51:41.207Z,21.56
2023-05-05T17:54:09.685Z,21.35
2023-05-05T17:56:38.101Z,21.18
2023-05-05T17:59:06.413Z,20.98
2023-05-05T18:01:35.256Z,20.80
2023-05-05T18:04:03.843Z,20.58
2023-05-05T18:06:32.249Z,20.37
2023-05-05T18:09:00.639Z,20.19
2023-05-05T18:11:30.912Z,20.02
2023-05-05T18:13:59.365Z,19.86
2023-05-05T18:16:27.633Z,19.72
2023-05-05T18:18:56.020Z,19.58
2023-05-05T18:21:24.421Z,19.44
2023-05-05T18:23:57.274Z,19.31
2023-05-05T18:26:30.244Z,19.15
2023-05-05T18:28:58.572Z,19.02
2023-05-05T18:31:29.941Z,18.88
2023-05-05T18:33:58.455Z,18.76
2023-05-05T18:36:29.300Z,18.62
2023-05-05T18:38:57.616Z,18.46
2023-05-05T18:41:25.908Z,18.31
2023-05-05T18:43:54.260Z,18.18
2023-05-05T18:46:22.782Z,18.06
2023-05-05T18:48:51.184Z,17.93
2023-05-05T18:51:19.492Z,17.79
2023-05-05T18:53:47.907Z,17.66
2023-05-05T18:56:16.305Z,17.54
2023-05-05T18:58:44.612Z,17.43
2023-05-05T19:01:13.036Z,17.31
2023-05-05T19:03:41.469Z,17.21
2023-05-05T19:06:09.846Z,17.12
2023-05-05T19:08:38.222Z,17.00
2023-05-05T19:11:06.700Z,16.91
2023-05-05T19:13:35.049Z,16.82
2023-05-05T19:16:03.716Z,16.73
2023-05-05T19:18:32.644Z,16.63
2023-05-05T19:21:01.949Z,16.53
2023-05-05T19:23:30.929Z,16.44
2023-05-05T19:25:59.327Z,16.36
2023-05-05T19:28:27.660Z,16.28
2023-05-05T19:30:56.159Z,16.21
2023-05-05T19:33:24.493Z,16.13
2023-05-05T19:35:52.905Z,16.06
2023-05-05T19:38:21.280Z,15.99
2023-05-05T19:40:49.707Z,15.91
2023-05-05T19:43:18.030Z,15.85
2023-05-05T19:45:46.477Z,15.79
2023-05-05T19:48:14.963Z,15.71
2023-05-05T19:50:43.346Z,15.65
2023-05-05T19:53:11.638Z,15.58
2023-05-05T19:55:40.050Z,15.51
2023-05-05T19:58:08.466Z,15.47
2023-05-05T20:00:36.895Z,15.42
2023-05-05T20:03:06.912Z,15.38
2023-05-05T20:05:36.650Z,15.33
2023-05-05T20:08:05.748Z,15.28
2023-05-05T20:10:34.566Z,15.21
2023-05-05T20:13:02.985Z,15.15
2023-05-05T20:15:31.949Z,15.10
2023-05-05T20:18:01.775Z,15.03
2023-05-05T20:20:30.474Z,14.96
2023-05-05T20:22:58.862Z,14.91
2023-05-05T20:25:27.298Z,14.84
2023-05-05T20:27:56.916Z,14.77
2023-05-05T20:30:25.249Z,14.71
2023-05-05T20:32:54.357Z,14.65
2023-05-05T20:35:22.920Z,14.60
2023-05-05T20:37:51.487Z,14.55
2023-05-05T20:40:19.843Z,14.50
2023-05-05T20:42:48.136Z,14.45
2023-05-05T20:45:16.449Z,14.39
2023-05-05T20:47:44.807Z,14.33
2023-05-05T20:50:13.326Z,14.28
2023-05-05T20:52:42.139Z,14.23
2023-05-05T20:55:10.609Z,14.18
2023-05-05T20:57:39.198Z,14.12
2023-05-05T21:00:09.125Z,14.08
2023-05-05T21:02:37.966Z,14.03
2023-05-05T21:05:07.122Z,14.00
2023-05-05T21:07:35.519Z,13.96
2023-05-05T21:10:04.998Z,13.91
2023-05-05T21:12:34.651Z,13.87
2023-05-05T21:15:03.356Z,13.82
2023-05-05T21:17:31.752Z,13.77
2023-05-05T21:20:00.483Z,13.73
2023-05-05T21:22:28.826Z,13.67
2023-05-05T21:25:32.845Z,13.63
2023-05-05T21:28:01.148Z,13.57
2023-05-05T21:30:29.648Z,13.52
2023-05-05T21:32:58.207Z,13.48
2023-05-05T21:35:26.574Z,13.44
2023-05-05T21:37:54.918Z,13.39
2023-05-05T21:40:23.289Z,13.35
2023-05-05T21:42:51.577Z,13.29
2023-05-05T21:45:20.379Z,13.25
2023-05-05T21:47:48.840Z,13.21
2023-05-05T21:50:17.261Z,13.17
2023-05-05T21:52:45.661Z,13.12
2023-05-05T21:55:14.071Z,13.09
2023-05-05T21:57:42.372Z,13.04
2023-05-05T22:00:16.664Z,13.00
2023-05-05T22:02:45.579Z,12.96
2023-05-05T22:05:14.162Z,12.92
2023-05-05T22:07:42.454Z,12.88
2023-05-05T22:10:11.404Z,12.83
2023-05-05T22:12:40.721Z,12.80
2023-05-05T22:15:10.051Z,12.75
2023-05-05T22:17:38.890Z,12.72
2023-05-05T22:20:09.357Z,12.68
2023-05-05T22:22:37.852Z,12.64
2023-05-05T22:25:06.937Z,12.61
2023-05-05T22:27:35.348Z,12.57
2023-05-05T22:30:04.213Z,12.52
2023-05-05T22:32:32.608Z,12.48
2023-05-05T22:35:01.424Z,12.45
2023-05-05T22:37:29.929Z,12.41
2023-05-05T22:39:58.421Z,12.38
2023-05-05T22:42:26.851Z,12.34
2023-05-05T22:44:55.266Z,12.32
2023-05-05T22:47:23.677Z,12.29
2023-05-05T22:49:52.139Z,12.27
2023-05-05T22:52:20.523Z,12.25
2023-05-05T22:54:48.851Z,12.24
2023-05-05T22:57:17.202Z,12.25
2023-05-05T22:59:45.565Z,12.25
2023-05-05T23:02:13.974Z,12.26
2023-05-05T23:04:44.898Z,12.26
2023-05-05T23:07:13.748Z,12.26
2023-05-05T23:09:42.201Z,12.26
2023-05-05T23:12:10.902Z,12.26
2023-05-05T23:14:39.391Z,12.27
2023-05-05T23:17:07.920Z,12.28
2023-05-05T23:19:37.047Z,12.30
2023-05-05T23:22:05.549Z,12.31
2023-05-05T23:24:33.983Z,12.32
2023-05-05T23:27:03.047Z,12.33
2023-05-05T23:29:31.710Z,12.35
2023-05-05T23:32:00.034Z,12.37
2023-05-05T23:34:28.378Z,12.39
2023-05-05T23:36:57.189Z,12.41
2023-05-05T23:39:25.512Z,12.42
2023-05-05T23:41:53.872Z,12.43
2023-05-05T23:44:22.162Z,12.46
2023-05-05T23:46:50.512Z,12.47
2023-05-05T23:49:18.845Z,12.49
2023-05-05T23:51:47.145Z,12.51
2023-05-05T23:54:15.736Z,12.53
2023-05-05T23:56:44.098Z,12.53
2023-05-05T23:59:12.500Z,12.53
